createdAt,value
2019-06-08T00:00:22.610Z,100556.20
2019-06-08T00:02:52.030Z,100567.88
2019-06-08T00:05:21.331Z,100553.75
2019-06-08T00:07:50.595Z,100559.60
2019-06-08T00:10:23.628Z,100560.20
2019-06-08T00:12:53.165Z,100559.75
2019-06-08T00:15:22.494Z,100570.78
2019-06-08T00:17:51.745Z,100576.20
2019-06-08T00:20:21.866Z,100576.29
2019-06-08T00:22:51.296Z,100573.94
2019-06-08T00:25:20.970Z,100567.38
2019-06-08T00:27:51.565Z,100575.62
2019-06-08T00:30:20.870Z,100578.09
2019-06-08T00:32:50.238Z,100582.95
2019-06-08T00:35:20.761Z,100585.20
2019-06-08T00:37:50.166Z,100587.38
2019-06-08T00:40:21.141Z,100588.17
2019-06-08T00:42:50.572Z,100588.73
2019-06-08T00:45:20.390Z,100570.14
2019-06-08T00:47:50.918Z,100569.73
2019-06-08T00:50:21.015Z,100544.50
2019-06-08T00:52:50.360Z,100572.41
2019-06-08T00:55:19.656Z,100566.39
2019-06-08T00:57:48.928Z,100562.08
2019-06-08T01:00:20.418Z,100567.52
2019-06-08T01:02:49.858Z,100566.47
2019-06-08T01:05:19.899Z,100587.01
2019-06-08T01:07:49.278Z,100587.36
2019-06-08T01:10:21.303Z,100590.77
2019-06-08T01:12:50.600Z,100595.59
2019-06-08T01:15:28.889Z,100585.50
2019-06-08T01:18:02.187Z,100591.84
2019-06-08T01:20:23.468Z,100600.71
2019-06-08T01:22:52.798Z,100613.33
2019-06-08T01:25:22.094Z,100596.59
2019-06-08T01:27:51.367Z,100609.98
2019-06-08T01:30:22.223Z,100630.06
2019-06-08T01:32:51.586Z,100628.89
2019-06-08T01:35:20.962Z,100611.74
2019-06-08T01:37:50.264Z,100625.26
2019-06-08T01:40:21.216Z,100634.17
2019-06-08T01:42:51.113Z,100637.25
2019-06-08T01:45:33.161Z,100635.17
2019-06-08T01:48:18.895Z,100646.18
2019-06-08T01:50:36.528Z,100643.87
2019-06-08T01:53:06.796Z,100639.95
2019-06-08T01:55:37.148Z,100646.00
2019-06-08T01:58:06.428Z,100641.98
2019-06-08T02:00:41.169Z,100638.22
2019-06-08T02:03:07.078Z,100639.72
2019-06-08T02:05:36.340Z,100645.32
2019-06-08T02:08:05.816Z,100644.05
2019-06-08T02:10:35.092Z,100642.20
2019-06-08T02:13:08.271Z,100647.03
2019-06-08T02:15:35.496Z,100643.59
2019-06-08T02:18:04.839Z,100648.75
2019-06-08T02:20:35.389Z,100651.38
2019-06-08T02:23:04.838Z,100654.98
2019-06-08T02:25:35.567Z,100677.86
2019-06-08T02:28:05.112Z,100649.59
2019-06-08T02:30:37.218Z,100647.95
2019-06-08T02:33:05.684Z,100654.70
2019-06-08T02:35:35.917Z,100656.60
2019-06-08T02:38:06.122Z,100662.03
2019-06-08T02:40:37.017Z,100661.70
2019-06-08T02:43:06.629Z,100678.84
2019-06-08T02:45:37.028Z,100683.05
2019-06-08T02:48:07.055Z,100690.95
2019-06-08T02:50:56.672Z,100682.87
2019-06-08T02:53:29.073Z,100679.91
2019-06-08T02:55:58.476Z,100685.91
2019-06-08T02:58:29.240Z,100695.54
2019-06-08T03:00:58.708Z,100695.36
2019-06-08T03:03:31.598Z,100680.45
2019-06-08T03:06:02.875Z,100678.04
2019-06-08T03:08:41.459Z,100697.65
2019-06-08T03:11:09.989Z,100696.88
2019-06-08T03:13:42.430Z,100690.05
2019-06-08T03:16:11.442Z,100712.55
2019-06-08T03:18:42.606Z,100715.36
2019-06-08T03:21:11.712Z,100708.53
2019-06-08T03:23:43.275Z,100720.62
2019-06-08T03:26:12.085Z,100728.02
2019-06-08T03:28:42.315Z,100716.95
2019-06-08T03:31:12.457Z,100712.24
2019-06-08T03:33:50.750Z,100723.37
2019-06-08T03:36:12.782Z,100741.84
2019-06-08T03:38:42.931Z,100734.95
2019-06-08T03:41:13.101Z,100739.75
2019-06-08T03:43:42.513Z,100743.73
2019-06-08T03:46:11.849Z,100755.37
2019-06-08T03:48:42.171Z,100749.48
2019-06-08T03:51:12.173Z,100754.68
2019-06-08T03:53:42.596Z,100776.75
2019-06-08T03:56:12.599Z,100761.42
2019-06-08T03:58:45.162Z,100763.01
2019-06-08T04:01:14.435Z,100783.83
2019-06-08T04:03:44.068Z,100772.99
2019-06-08T04:06:13.812Z,100777.78
2019-06-08T04:08:45.375Z,100773.51
2019-06-08T04:11:15.066Z,100785.23
2019-06-08T04:13:45.124Z,100802.30
2019-06-08T04:16:15.383Z,100794.95
2019-06-08T04:18:46.818Z,100788.22
2019-06-08T04:21:17.341Z,100817.38
2019-06-08T04:23:47.283Z,100812.47
2019-06-08T04:26:16.618Z,100824.52
2019-06-08T04:28:47.243Z,100813.52
2019-06-08T04:31:16.872Z,100815.07
2019-06-08T04:33:46.649Z,100828.73
2019-06-08T04:36:16.137Z,100826.27
2019-06-08T04:38:46.201Z,100826.38
2019-06-08T04:41:16.415Z,100824.11
2019-06-08T04:43:47.366Z,100843.86
2019-06-08T04:46:16.667Z,100843.61
2019-06-08T04:48:47.982Z,100858.73
2019-06-08T04:51:17.046Z,100856.19
2019-06-08T04:53:47.215Z,100860.50
2019-06-08T04:56:17.080Z,100867.22
2019-06-08T04:58:48.349Z,100867.06
2019-06-08T05:01:17.353Z,100872.30
2019-06-08T05:03:47.801Z,100872.48
2019-06-08T05:06:17.605Z,100891.36
2019-06-08T05:08:47.415Z,100885.58
2019-06-08T05:11:16.726Z,100890.84
2019-06-08T05:13:47.608Z,100895.38
2019-06-08T05:16:16.988Z,100889.62
2019-06-08T05:18:47.339Z,100895.38
2019-06-08T05:21:16.810Z,100913.48
2019-06-08T05:23:47.882Z,100910.77
2019-06-08T05:26:17.083Z,100929.41
2019-06-08T05:28:47.379Z,100921.50
2019-06-08T05:31:16.769Z,100917.70
2019-06-08T05:33:47.483Z,100924.31
2019-06-08T05:36:16.897Z,100933.23
2019-06-08T05:38:46.165Z,100926.38
2019-06-08T05:41:15.457Z,100942.30
2019-06-08T05:43:45.621Z,100933.48
2019-06-08T05:46:15.011Z,100930.48
2019-06-08T05:48:44.296Z,100925.42
2019-06-08T05:51:13.572Z,100932.85
2019-06-08T05:53:43.815Z,100946.83
2019-06-08T05:56:13.252Z,100938.00
2019-06-08T05:58:43.876Z,100954.78
2019-06-08T06:01:13.253Z,100939.59
2019-06-08T06:03:44.572Z,100944.09
2019-06-08T06:06:14.027Z,100942.49
2019-06-08T06:08:44.442Z,100951.55
2019-06-08T06:11:14.095Z,100958.30
2019-06-08T06:13:43.387Z,100962.73
2019-06-08T06:16:12.673Z,100962.92
2019-06-08T06:18:42.937Z,100981.14
2019-06-08T06:21:13.774Z,100987.98
2019-06-08T06:23:43.187Z,100980.85
2019-06-08T06:26:12.634Z,100985.17
2019-06-08T06:28:41.936Z,100997.52
2019-06-08T06:31:11.229Z,101011.60
2019-06-08T06:33:41.869Z,101003.67
2019-06-08T06:36:12.374Z,101015.11
2019-06-08T06:38:41.956Z,101001.72
2019-06-08T06:41:11.247Z,101017.52
2019-06-08T06:43:42.129Z,101015.55
2019-06-08T06:46:11.607Z,101017.70
2019-06-08T06:48:41.997Z,101021.81
2019-06-08T06:51:25.230Z,101028.50
2019-06-08T06:53:42.802Z,101046.86
2019-06-08T06:56:12.244Z,101030.49
2019-06-08T06:58:41.564Z,101049.65
2019-06-08T07:01:10.869Z,101043.09
2019-06-08T07:03:40.164Z,101047.47
2019-06-08T07:06:09.427Z,101054.20
2019-06-08T07:08:41.918Z,101054.16
2019-06-08T07:11:09.709Z,101058.52
2019-06-08T07:13:39.009Z,101057.25
2019-06-08T07:16:17.793Z,101055.69
2019-06-08T07:18:39.302Z,101056.14
2019-06-08T07:21:08.575Z,101063.02
2019-06-08T07:23:37.872Z,101069.09
2019-06-08T07:26:08.070Z,101065.49
2019-06-08T07:28:37.337Z,101077.41
2019-06-08T07:31:06.620Z,101073.22
2019-06-08T07:33:35.903Z,101061.38
2019-06-08T07:36:05.201Z,101070.47
2019-06-08T07:38:34.479Z,101073.16
2019-06-08T07:41:03.762Z,101068.19
2019-06-08T07:43:33.064Z,101077.23
2019-06-08T07:46:02.350Z,101072.71
2019-06-08T07:48:31.655Z,101077.23
2019-06-08T07:51:00.951Z,101078.69
2019-06-08T07:53:30.242Z,101089.39
2019-06-08T07:55:59.829Z,101096.40
2019-06-08T07:58:29.231Z,101095.52
2019-06-08T08:01:06.699Z,101085.42
2019-06-08T08:03:29.497Z,101099.09
2019-06-08T08:05:58.768Z,101080.13
2019-06-08T08:08:28.075Z,101088.81
2019-06-08T08:10:58.647Z,101103.61
2019-06-08T08:13:28.282Z,101095.64
2019-06-08T08:15:59.321Z,101118.82
2019-06-08T08:18:28.551Z,101118.73
2019-06-08T08:21:03.008Z,101121.44
2019-06-08T08:23:28.819Z,101133.95
2019-06-08T08:26:01.368Z,101127.72
2019-06-08T08:28:29.084Z,101135.16
2019-06-08T08:31:00.366Z,101133.13
2019-06-08T08:33:29.344Z,101137.08
2019-06-08T08:36:01.456Z,101139.50
2019-06-08T08:38:29.630Z,101126.13
2019-06-08T08:41:06.170Z,101138.28
2019-06-08T08:43:29.964Z,101135.14
2019-06-08T08:46:01.817Z,101156.77
2019-06-08T08:48:31.713Z,101157.23
2019-06-08T08:51:03.516Z,101149.78
2019-06-08T08:53:32.248Z,101162.91
2019-06-08T08:56:02.592Z,101170.79
2019-06-08T08:58:31.994Z,101184.99
2019-06-08T09:01:03.503Z,101198.20
2019-06-08T09:03:33.727Z,101198.29
2019-06-08T09:06:04.677Z,101202.24
2019-06-08T09:08:34.191Z,101215.87
2019-06-08T09:11:04.266Z,101218.18
2019-06-08T09:13:33.689Z,101221.37
2019-06-08T09:16:04.229Z,101215.38
2019-06-08T09:18:37.349Z,101231.97
2019-06-08T09:21:08.122Z,101224.08
2019-06-08T09:23:37.856Z,101220.70
2019-06-08T09:26:12.178Z,101231.06
2019-06-08T09:28:38.856Z,101229.55
2019-06-08T09:31:12.854Z,101236.49
2019-06-08T09:33:40.676Z,101251.57
2019-06-08T09:36:09.957Z,101259.03
2019-06-08T09:38:39.251Z,101253.43
2019-06-08T09:41:09.092Z,101268.26
2019-06-08T09:43:39.579Z,101279.27
2019-06-08T09:46:09.453Z,101287.32
2019-06-08T09:48:38.991Z,101275.09
2019-06-08T09:51:09.327Z,101298.16
2019-06-08T09:53:41.628Z,101301.01
2019-06-08T09:56:10.372Z,101300.30
2019-06-08T09:58:39.857Z,101304.66
2019-06-08T10:01:12.344Z,101307.72
2019-06-08T10:03:40.175Z,101317.47
2019-06-08T10:06:12.329Z,101316.53
2019-06-08T10:08:40.443Z,101306.20
2019-06-08T10:11:09.951Z,101324.81
2019-06-08T10:13:43.133Z,101325.96
2019-06-08T10:16:10.899Z,101333.67
2019-06-08T10:18:40.440Z,101339.41
2019-06-08T10:21:10.009Z,101344.41
2019-06-08T10:23:41.793Z,101359.54
2019-06-08T10:26:11.308Z,101364.83
2019-06-08T10:28:41.616Z,101367.03
2019-06-08T10:31:10.896Z,101375.50
2019-06-08T10:33:40.540Z,101385.95
2019-06-08T10:36:12.839Z,101385.84
2019-06-08T10:38:41.535Z,101383.67
2019-06-08T10:41:17.845Z,101390.19
2019-06-08T10:43:42.000Z,101391.77
2019-06-08T10:46:16.542Z,101406.75
2019-06-08T10:48:42.254Z,101411.76
2019-06-08T10:51:13.115Z,101411.97
2019-06-08T10:53:48.370Z,101407.66
2019-06-08T10:56:13.650Z,101409.73
2019-06-08T10:58:43.020Z,101411.55
2019-06-08T11:01:13.246Z,101418.61
2019-06-08T11:03:43.040Z,101426.33
2019-06-08T11:06:13.890Z,101440.08
2019-06-08T11:08:43.343Z,101458.33
2019-06-08T11:11:12.659Z,101452.67
2019-06-08T11:13:41.955Z,101457.94
2019-06-08T11:16:13.445Z,101442.61
2019-06-08T11:18:43.746Z,101467.97
2019-06-08T11:21:13.202Z,101467.00
2019-06-08T11:23:43.899Z,101480.45
2019-06-08T11:26:19.706Z,101484.39
2019-06-08T11:28:44.248Z,101504.66
2019-06-08T11:31:15.943Z,101501.16
2019-06-08T11:33:44.591Z,101503.27
2019-06-08T11:36:14.982Z,101509.97
2019-06-08T11:38:44.329Z,101499.53
2019-06-08T11:41:13.896Z,101499.73
2019-06-08T11:43:44.197Z,101510.55
2019-06-08T11:46:13.508Z,101516.38
2019-06-08T11:48:42.791Z,101515.88
2019-06-08T11:51:13.194Z,101511.48
2019-06-08T11:53:42.672Z,101513.89
2019-06-08T11:56:13.523Z,101514.20
2019-06-08T11:58:43.245Z,101532.86
2019-06-08T12:01:15.457Z,101550.52
2019-06-08T12:03:45.084Z,101537.07
2019-06-08T12:06:14.696Z,101533.38
2019-06-08T12:08:44.122Z,101536.32
2019-06-08T12:11:18.062Z,101533.97
2019-06-08T12:13:44.535Z,101538.94
2019-06-08T12:16:15.717Z,101543.52
2019-06-08T12:18:44.837Z,101538.02
2019-06-08T12:21:14.631Z,101541.20
2019-06-08T12:23:44.220Z,101540.66
2019-06-08T12:26:14.500Z,101543.27
2019-06-08T12:28:44.021Z,101543.88
2019-06-08T12:31:21.455Z,101549.81
2019-06-08T12:33:48.751Z,101539.24
2019-06-08T12:36:20.543Z,101543.45
2019-06-08T12:38:49.386Z,101543.42
2019-06-08T12:41:19.395Z,101543.75
2019-06-08T12:43:48.926Z,101540.45
2019-06-08T12:46:19.816Z,101536.11
2019-06-08T12:48:49.908Z,101567.00
2019-06-08T12:51:21.094Z,101557.06
2019-06-08T12:53:50.191Z,101558.17
2019-06-08T12:56:23.921Z,101563.42
2019-06-08T12:58:51.229Z,101562.96
2019-06-08T13:01:20.505Z,101543.77
2019-06-08T13:03:49.810Z,101568.16
2019-06-08T13:06:20.055Z,101556.58
2019-06-08T13:08:50.324Z,101554.03
2019-06-08T13:11:21.231Z,101554.07
2019-06-08T13:13:50.680Z,101541.23
2019-06-08T13:16:24.313Z,101549.17
2019-06-08T13:18:51.181Z,101561.56
2019-06-08T13:21:33.281Z,101586.44
2019-06-08T13:23:51.452Z,101594.89
2019-06-08T13:26:27.507Z,101619.74
2019-06-08T13:28:51.716Z,101613.41
2019-06-08T13:31:24.503Z,101599.57
2019-06-08T13:33:53.057Z,101602.50
2019-06-08T13:36:26.277Z,101602.61
2019-06-08T13:38:53.320Z,101612.13
2019-06-08T13:41:25.943Z,101609.63
2019-06-08T13:43:55.060Z,101621.23
2019-06-08T13:46:24.345Z,101616.05
2019-06-08T13:48:53.635Z,101612.92
2019-06-08T13:51:24.164Z,101613.91
2019-06-08T13:53:53.644Z,101609.69
2019-06-08T13:56:24.057Z,101617.64
2019-06-08T13:58:53.527Z,101622.02
2019-06-08T14:01:23.837Z,101615.72
2019-06-08T14:03:54.025Z,101619.39
2019-06-08T14:06:23.746Z,101632.47
2019-06-08T14:08:54.266Z,101629.22
2019-06-08T14:11:24.078Z,101640.63
2019-06-08T14:13:54.690Z,101637.63
2019-06-08T14:16:25.307Z,101652.71
2019-06-08T14:18:54.977Z,101645.95
2019-06-08T14:21:31.932Z,101654.92
2019-06-08T14:23:55.243Z,101644.86
2019-06-08T14:26:25.898Z,101667.16
2019-06-08T14:28:55.323Z,101663.81
2019-06-08T14:31:29.126Z,101673.11
2019-06-08T14:33:56.681Z,101671.77
2019-06-08T14:36:28.671Z,101677.27
2019-06-08T14:39:01.986Z,101674.89
2019-06-08T14:41:31.174Z,101685.16
2019-06-08T14:43:58.981Z,101682.82
2019-06-08T14:46:28.807Z,101699.37
2019-06-08T14:48:59.492Z,101690.42
2019-06-08T14:51:47.763Z,101699.65
2019-06-08T14:54:22.480Z,101685.59
2019-06-08T14:56:49.564Z,101698.32
2019-06-08T14:59:21.458Z,101695.59
2019-06-08T15:01:49.834Z,101701.53
2019-06-08T15:04:23.182Z,101693.84
2019-06-08T15:06:50.111Z,101711.42
2019-06-08T15:09:21.359Z,101705.30
2019-06-08T15:11:50.735Z,101702.92
2019-06-08T15:14:20.045Z,101708.03
2019-06-08T15:16:49.547Z,101703.27
2019-06-08T15:19:20.100Z,101719.04
2019-06-08T15:21:49.536Z,101719.44
2019-06-08T15:24:18.834Z,101730.40
2019-06-08T15:26:48.767Z,101733.68
2019-06-08T15:29:18.400Z,101720.03
2019-06-08T15:31:48.426Z,101714.55
2019-06-08T15:34:18.402Z,101731.91
2019-06-08T15:36:47.781Z,101741.25
2019-06-08T15:39:17.950Z,101738.95
2019-06-08T15:41:48.726Z,101743.86
2019-06-08T15:44:21.295Z,101741.20
2019-06-08T15:46:49.287Z,101737.03
2019-06-08T15:49:18.784Z,101746.40
2019-06-08T15:51:49.140Z,101747.55
2019-06-08T15:54:18.436Z,101748.05
2019-06-08T15:56:51.901Z,101756.03
2019-06-08T15:59:18.696Z,101754.39
2019-06-08T16:01:47.987Z,101760.03
2019-06-08T16:04:17.483Z,101750.28
2019-06-08T16:06:46.803Z,101754.50
2019-06-08T16:09:16.140Z,101766.57
2019-06-08T16:11:45.805Z,101764.31
2019-06-08T16:14:15.111Z,101770.62
2019-06-08T16:16:44.415Z,101764.72
2019-06-08T16:19:13.726Z,101771.41
2019-06-08T16:21:43.035Z,101768.10
2019-06-08T16:24:12.337Z,101779.09
2019-06-08T16:26:52.698Z,101780.68
2019-06-08T16:29:12.606Z,101783.11
2019-06-08T16:31:41.919Z,101787.58
2019-06-08T16:34:11.254Z,101786.14
2019-06-08T16:36:40.560Z,101795.75
2019-06-08T16:39:09.841Z,101799.58
2019-06-08T16:41:40.255Z,101779.66
2019-06-08T16:44:10.015Z,101788.12
2019-06-08T16:46:39.301Z,101797.94
2019-06-08T16:49:08.601Z,101795.50
2019-06-08T16:51:37.908Z,101798.48
2019-06-08T16:54:07.230Z,101804.02
2019-06-08T16:56:36.706Z,101811.14
2019-06-08T16:59:06.168Z,101805.79
2019-06-08T17:01:36.906Z,101813.13
2019-06-08T17:04:06.206Z,101821.55
2019-06-08T17:06:35.527Z,101816.80
2019-06-08T17:09:07.037Z,101818.22
2019-06-08T17:11:36.336Z,101831.62
2019-06-08T17:14:05.855Z,101824.03
2019-06-08T17:16:36.361Z,101834.25
2019-06-08T17:19:05.935Z,101830.50
2019-06-08T17:21:36.275Z,101835.49
2019-06-08T17:24:05.682Z,101850.99
2019-06-08T17:26:35.034Z,101847.05
2019-06-08T17:29:04.361Z,101854.06
2019-06-08T17:31:35.137Z,101848.64
2019-06-08T17:34:04.638Z,101862.80
2019-06-08T17:36:34.551Z,101851.84
2019-06-08T17:39:05.210Z,101846.31
2019-06-08T17:41:36.086Z,101848.61
2019-06-08T17:44:05.364Z,101865.61
2019-06-08T17:46:34.673Z,101861.45
2019-06-08T17:49:03.949Z,101850.88
2019-06-08T17:51:33.278Z,101863.93
2019-06-08T17:54:02.931Z,101863.25
2019-06-08T17:56:32.978Z,101854.63
2019-06-08T17:59:02.289Z,101862.74
2019-06-08T18:01:33.884Z,101871.24
2019-06-08T18:04:02.822Z,101873.20
2019-06-08T18:06:32.120Z,101867.72
2019-06-08T18:09:01.421Z,101871.05
2019-06-08T18:11:32.332Z,101879.64
2019-06-08T18:14:01.660Z,101876.91
2019-06-08T18:16:30.950Z,101879.11
2019-06-08T18:19:00.250Z,101879.30
2019-06-08T18:21:29.568Z,101883.04
2019-06-08T18:23:58.888Z,101888.92
2019-06-08T18:26:28.226Z,101885.73
2019-06-08T18:28:59.194Z,101895.35
2019-06-08T18:31:28.525Z,101890.59
2019-06-08T18:33:59.858Z,101894.70
2019-06-08T18:36:28.904Z,101889.56
2019-06-08T18:38:58.285Z,101902.64
2019-06-08T18:41:27.572Z,101910.45
2019-06-08T18:43:58.351Z,101909.80
2019-06-08T18:46:27.768Z,101922.27
2019-06-08T18:48:57.891Z,101919.35
2019-06-08T18:51:28.061Z,101923.30
2019-06-08T18:54:08.479Z,101923.44
2019-06-08T18:56:28.615Z,101928.17
2019-06-08T18:58:58.314Z,101926.52
2019-06-08T19:01:27.985Z,101925.79
2019-06-08T19:03:57.872Z,101923.53
2019-06-08T19:06:27.831Z,101934.19
2019-06-08T19:08:58.413Z,101938.39
2019-06-08T19:11:28.595Z,101938.83
2019-06-08T19:13:58.175Z,101937.06
2019-06-08T19:16:28.336Z,101943.09
2019-06-08T19:18:58.254Z,101947.54
2019-06-08T19:21:28.280Z,101944.11
2019-06-08T19:23:58.815Z,101958.72
2019-06-08T19:26:28.340Z,101962.60
2019-06-08T19:28:58.820Z,101962.93
2019-06-08T19:31:28.114Z,101972.88
2019-06-08T19:33:58.086Z,101973.34
2019-06-08T19:36:28.465Z,101971.58
2019-06-08T19:38:58.677Z,101977.41
2019-06-08T19:41:28.423Z,101980.03
2019-06-08T19:43:59.247Z,101988.73
2019-06-08T19:46:28.651Z,101998.30
2019-06-08T19:48:58.938Z,101996.20
2019-06-08T19:51:28.677Z,101996.13
2019-06-08T19:53:58.471Z,101995.27
2019-06-08T19:56:29.424Z,102004.89
2019-06-08T19:59:03.977Z,102013.53
2019-06-08T20:01:29.769Z,102017.17
2019-06-08T20:04:01.231Z,102031.28
2019-06-08T20:06:30.059Z,102022.16
2019-06-08T20:08:59.438Z,102025.19
2019-06-08T20:11:29.395Z,102035.00
2019-06-08T20:13:58.800Z,102035.27
2019-06-08T20:16:28.083Z,102041.94
2019-06-08T20:18:58.644Z,102040.59
2019-06-08T20:21:28.044Z,102051.65
2019-06-08T20:23:58.467Z,102051.02
2019-06-08T20:26:29.105Z,102060.25
2019-06-08T20:29:12.148Z,102061.24
2019-06-08T20:31:30.811Z,102059.85
2019-06-08T20:34:00.094Z,102057.67
2019-06-08T20:36:29.386Z,102062.07
2019-06-08T20:38:58.745Z,102065.30
2019-06-08T20:41:28.013Z,102070.53
2019-06-08T20:43:57.974Z,102068.19
2019-06-08T20:46:28.551Z,102068.97
2019-06-08T20:48:58.244Z,102072.92
2019-06-08T20:51:27.945Z,102074.73
2019-06-08T20:53:57.488Z,102071.19
2019-06-08T20:56:28.105Z,102075.06
2019-06-08T20:58:59.030Z,102074.23
2019-06-08T21:01:28.326Z,102075.84
2019-06-08T21:03:57.824Z,102081.48
2019-06-08T21:06:27.992Z,102082.72
2019-06-08T21:08:57.985Z,102085.94
2019-06-08T21:11:28.407Z,102086.75
2019-06-08T21:13:57.718Z,102086.41
2019-06-08T21:16:27.730Z,102100.99
2019-06-08T21:18:57.959Z,102098.60
2019-06-08T21:21:28.991Z,102107.64
2019-06-08T21:24:01.063Z,102102.66
2019-06-08T21:26:52.242Z,102096.72
2019-06-08T21:29:19.375Z,102103.52
2019-06-08T21:31:51.508Z,102107.72
2019-06-08T21:34:19.676Z,102104.48
2019-06-08T21:36:49.808Z,102107.08
2019-06-08T21:39:20.906Z,102109.91
2019-06-08T21:41:54.445Z,102109.91
2019-06-08T21:44:21.169Z,102110.92
2019-06-08T21:46:51.753Z,102111.73
2019-06-08T21:49:21.445Z,102119.78
2019-06-08T21:51:51.940Z,102112.00
2019-06-08T21:54:21.684Z,102109.61
2019-06-08T21:56:52.138Z,102114.59
2019-06-08T21:59:21.959Z,102111.02
2019-06-08T22:01:53.024Z,102114.44
2019-06-08T22:04:22.210Z,102115.22
2019-06-08T22:06:51.997Z,102125.02
2019-06-08T22:09:21.285Z,102120.45
2019-06-08T22:11:51.417Z,102116.85
2019-06-08T22:14:21.662Z,102119.86
2019-06-08T22:16:52.492Z,102126.64
2019-06-08T22:19:21.837Z,102119.27
2019-06-08T22:21:52.540Z,102123.45
2019-06-08T22:24:22.108Z,102136.66
2019-06-08T22:26:52.651Z,102131.45
2019-06-08T22:29:22.376Z,102130.66
2019-06-08T22:31:52.631Z,102133.64
2019-06-08T22:34:22.626Z,102136.25
2019-06-08T22:36:53.071Z,102137.25
2019-06-08T22:39:22.982Z,102133.47
2019-06-08T22:41:53.374Z,102138.24
2019-06-08T22:44:22.727Z,102144.05
2019-06-08T22:46:53.812Z,102142.65
2019-06-08T22:49:22.955Z,102143.25
2019-06-08T22:51:53.408Z,102144.23
2019-06-08T22:54:23.090Z,102133.67
2019-06-08T22:56:53.784Z,102141.66
2019-06-08T22:59:23.454Z,102144.83
2019-06-08T23:01:53.378Z,102141.44
2019-06-08T23:04:24.124Z,102149.81
2019-06-08T23:06:54.794Z,102151.04
2019-06-08T23:09:24.413Z,102155.39
2019-06-08T23:11:55.135Z,102163.59
2019-06-08T23:14:25.308Z,102162.62
2019-06-08T23:16:54.599Z,102165.41
2019-06-08T23:19:26.356Z,102165.37
2019-06-08T23:21:55.291Z,102161.55
2019-06-08T23:24:24.602Z,102163.75
2019-06-08T23:26:53.905Z,102163.73
2019-06-08T23:29:23.205Z,102160.54
2019-06-08T23:31:52.488Z,102158.52
2019-06-08T23:34:23.332Z,102161.70
2019-06-08T23:36:59.125Z,102161.70
2019-06-08T23:39:23.738Z,102157.91
2019-06-08T23:41:53.032Z,102172.87
2019-06-08T23:44:22.298Z,102162.73
2019-06-08T23:46:51.584Z,102160.52
2019-06-08T23:49:20.887Z,102159.94
2019-06-08T23:51:50.168Z,102154.53
2019-06-08T23:54:19.474Z,102163.70
2019-06-08T23:56:48.886Z,102158.70
2019-06-08T23:59:18.172Z,102163.89
